createdAt,value
2022-11-25T00:00:39.696Z,2.40
2022-11-25T00:03:07.121Z,2.40
2022-11-25T00:05:41.305Z,2.53
2022-11-25T00:08:15.383Z,2.37
2022-11-25T00:10:56.311Z,2.57
2022-11-25T00:13:23.693Z,3.03
2022-11-25T00:15:51.104Z,2.37
2022-11-25T00:18:25.294Z,2.27
2022-11-25T00:20:52.723Z,2.87
2022-11-25T00:23:20.073Z,2.70
2022-11-25T00:25:54.359Z,2.80
2022-11-25T00:28:21.760Z,3.10
2022-11-25T00:30:49.280Z,2.80
2022-11-25T00:33:25.320Z,3.00
2022-11-25T00:35:52.696Z,2.80
2022-11-25T00:38:20.082Z,3.00
2022-11-25T00:41:14.292Z,3.37
2022-11-25T00:44:00.709Z,3.23
2022-11-25T00:46:34.327Z,3.60
2022-11-25T00:49:01.673Z,3.23
2022-11-25T00:51:29.403Z,3.20
2022-11-25T00:54:03.332Z,3.47
2022-11-25T00:56:30.783Z,3.20
2022-11-25T00:58:58.765Z,3.23
2022-11-25T01:01:33.365Z,3.57
2022-11-25T01:04:00.848Z,3.67
2022-11-25T01:06:41.319Z,3.60
2022-11-25T01:09:15.736Z,3.40
2022-11-25T01:11:49.301Z,3.70
2022-11-25T01:14:16.873Z,3.10
2022-11-25T01:16:44.323Z,3.30
2022-11-25T01:19:19.325Z,3.23
2022-11-25T01:21:47.118Z,4.00
2022-11-25T01:24:16.119Z,3.70
2022-11-25T01:26:51.315Z,3.40
2022-11-25T01:29:19.531Z,2.77
2022-11-25T01:31:48.624Z,3.10
2022-11-25T01:34:28.307Z,3.57
2022-11-25T01:36:55.718Z,3.23
2022-11-25T01:39:31.654Z,2.67
2022-11-25T01:42:07.340Z,3.47
2022-11-25T01:44:39.321Z,2.77
2022-11-25T01:47:31.331Z,2.60
2022-11-25T01:50:05.873Z,3.00
2022-11-25T01:52:53.292Z,2.50
2022-11-25T01:55:27.017Z,2.70
2022-11-25T01:58:06.342Z,2.60
2022-11-25T02:00:34.015Z,2.50
2022-11-25T02:03:01.696Z,1.70
2022-11-25T02:05:55.414Z,2.20
2022-11-25T02:08:33.420Z,2.37
2022-11-25T02:11:14.324Z,2.13
2022-11-25T02:13:42.432Z,2.23
2022-11-25T02:16:10.083Z,1.93
2022-11-25T02:18:44.284Z,2.10
2022-11-25T02:21:14.275Z,2.03
2022-11-25T02:24:03.331Z,2.10
2022-11-25T02:26:31.071Z,1.83
2022-11-25T02:28:58.804Z,2.10
2022-11-25T02:31:33.423Z,1.67
2022-11-25T02:34:01.321Z,2.30
2022-11-25T02:36:28.735Z,1.80
2022-11-25T02:39:05.414Z,1.67
2022-11-25T02:41:39.148Z,1.70
2022-11-25T02:44:13.426Z,1.73
2022-11-25T02:46:40.901Z,1.53
2022-11-25T02:49:09.891Z,2.03
2022-11-25T02:51:47.426Z,1.93
2022-11-25T02:54:15.845Z,2.10
2022-11-25T02:56:43.842Z,1.70
2022-11-25T02:59:18.359Z,1.37
2022-11-25T03:01:45.796Z,1.60
2022-11-25T03:04:13.474Z,1.67
2022-11-25T03:06:47.376Z,1.90
2022-11-25T03:09:21.608Z,1.77
2022-11-25T03:12:14.371Z,1.60
2022-11-25T03:14:41.817Z,1.77
2022-11-25T03:17:09.170Z,1.90
2022-11-25T03:19:43.344Z,1.50
2022-11-25T03:22:10.952Z,1.63
2022-11-25T03:24:38.558Z,1.97
2022-11-25T03:27:12.365Z,1.80
2022-11-25T03:29:39.746Z,1.60
2022-11-25T03:32:09.734Z,1.70
2022-11-25T03:34:43.334Z,2.03
2022-11-25T03:37:10.818Z,1.50
2022-11-25T03:39:38.276Z,1.70
2022-11-25T03:42:12.327Z,1.73
2022-11-25T03:44:39.778Z,1.73
2022-11-25T03:47:07.243Z,1.97
2022-11-25T03:49:48.353Z,1.60
2022-11-25T03:52:16.003Z,1.87
2022-11-25T03:54:43.585Z,1.40
2022-11-25T03:57:18.392Z,1.50
2022-11-25T03:59:46.164Z,2.10
2022-11-25T04:02:14.371Z,1.43
2022-11-25T04:04:49.436Z,1.90
2022-11-25T04:07:30.627Z,1.37
2022-11-25T04:10:04.352Z,1.30
2022-11-25T04:12:47.117Z,1.40
2022-11-25T04:15:22.549Z,1.87
2022-11-25T04:17:49.881Z,1.47
2022-11-25T04:20:17.425Z,1.40
2022-11-25T04:22:51.344Z,1.30
2022-11-25T04:25:18.786Z,1.13
2022-11-25T04:27:46.479Z,1.30
2022-11-25T04:30:20.343Z,1.43
2022-11-25T04:32:47.747Z,1.50
2022-11-25T04:35:15.262Z,1.30
2022-11-25T04:37:49.367Z,1.00
2022-11-25T04:40:16.864Z,1.13
2022-11-25T04:42:44.240Z,1.93
2022-11-25T04:45:23.637Z,1.77
2022-11-25T04:47:51.684Z,1.00
2022-11-25T04:50:29.345Z,1.40
2022-11-25T04:52:56.868Z,0.70
2022-11-25T04:55:24.256Z,1.20
2022-11-25T04:57:58.367Z,1.00
2022-11-25T05:00:25.831Z,1.50
2022-11-25T05:02:53.410Z,0.90
2022-11-25T05:05:28.336Z,1.13
2022-11-25T05:08:16.452Z,1.20
2022-11-25T05:10:50.361Z,0.83
2022-11-25T05:13:17.832Z,0.97
2022-11-25T05:15:45.212Z,1.13
2022-11-25T05:18:19.344Z,1.00
2022-11-25T05:20:46.758Z,1.70
2022-11-25T05:23:14.215Z,1.20
2022-11-25T05:25:48.438Z,1.03
2022-11-25T05:28:16.470Z,1.00
2022-11-25T05:30:45.447Z,1.00
2022-11-25T05:33:19.378Z,0.97
2022-11-25T05:35:58.343Z,1.10
2022-11-25T05:38:32.351Z,1.20
2022-11-25T05:41:05.608Z,1.70
2022-11-25T05:43:39.392Z,1.00
2022-11-25T05:46:08.056Z,1.40
2022-11-25T05:48:36.117Z,1.20
2022-11-25T05:51:11.359Z,1.10
2022-11-25T05:53:38.942Z,1.10
2022-11-25T05:56:07.921Z,1.30
2022-11-25T05:58:43.365Z,1.10
2022-11-25T06:01:12.978Z,1.17
2022-11-25T06:03:41.734Z,1.23
2022-11-25T06:06:17.420Z,0.97
2022-11-25T06:08:58.516Z,1.20
2022-11-25T06:11:32.361Z,1.27
2022-11-25T06:13:59.832Z,1.20
2022-11-25T06:16:28.563Z,1.10
2022-11-25T06:19:02.440Z,0.90
2022-11-25T06:21:29.927Z,0.90
2022-11-25T06:23:57.502Z,0.90
2022-11-25T06:26:31.417Z,1.00
2022-11-25T06:28:58.970Z,0.83
2022-11-25T06:31:27.290Z,1.10
2022-11-25T06:34:01.377Z,1.00
2022-11-25T06:36:29.131Z,1.17
2022-11-25T06:38:56.625Z,1.20
2022-11-25T06:41:31.382Z,1.17
2022-11-25T06:43:58.889Z,0.83
2022-11-25T06:46:26.590Z,1.53
2022-11-25T06:49:01.402Z,1.17
2022-11-25T06:51:29.064Z,1.10
2022-11-25T06:54:00.395Z,0.93
2022-11-25T06:56:35.764Z,1.00
2022-11-25T06:59:04.223Z,1.10
2022-11-25T07:01:31.861Z,1.43
2022-11-25T07:04:09.753Z,1.00
2022-11-25T07:06:37.220Z,0.80
2022-11-25T07:09:17.704Z,1.03
2022-11-25T07:11:45.934Z,0.90
2022-11-25T07:14:15.718Z,0.97
2022-11-25T07:16:51.684Z,1.87
2022-11-25T07:19:20.470Z,1.40
2022-11-25T07:21:50.313Z,1.23
2022-11-25T07:24:26.292Z,1.00
2022-11-25T07:26:53.992Z,1.00
2022-11-25T07:29:57.892Z,1.00
2022-11-25T07:32:17.387Z,0.77
2022-11-25T07:34:49.876Z,1.30
2022-11-25T07:37:18.023Z,0.80
2022-11-25T07:39:53.879Z,1.00
2022-11-25T07:42:25.867Z,0.90
2022-11-25T07:44:53.337Z,1.10
2022-11-25T07:47:26.960Z,0.80
2022-11-25T07:49:54.410Z,1.10
2022-11-25T07:52:22.163Z,1.20
2022-11-25T07:54:55.945Z,1.10
2022-11-25T07:57:23.404Z,1.17
2022-11-25T07:59:50.999Z,1.20
2022-11-25T08:02:24.962Z,1.03
2022-11-25T08:04:52.380Z,0.93
2022-11-25T08:07:36.466Z,1.00
2022-11-25T08:10:11.312Z,1.00
2022-11-25T08:12:44.906Z,1.17
2022-11-25T08:15:12.524Z,1.60
2022-11-25T08:17:40.186Z,1.70
2022-11-25T08:20:14.938Z,1.30
2022-11-25T08:22:42.533Z,1.40
2022-11-25T08:25:10.208Z,1.50
2022-11-25T08:27:43.922Z,1.10
2022-11-25T08:30:12.073Z,0.93
2022-11-25T08:32:40.412Z,0.97
2022-11-25T08:35:14.939Z,1.00
2022-11-25T08:37:42.372Z,1.10
2022-11-25T08:40:11.381Z,1.13
2022-11-25T08:42:45.894Z,1.47
2022-11-25T08:45:13.728Z,1.07
2022-11-25T08:47:41.324Z,1.30
2022-11-25T08:50:19.949Z,1.50
2022-11-25T08:52:47.829Z,1.53
2022-11-25T08:55:15.690Z,1.80
2022-11-25T08:57:49.888Z,1.30
2022-11-25T09:00:18.154Z,1.77
2022-11-25T09:02:45.655Z,1.80
2022-11-25T09:05:23.839Z,1.40
2022-11-25T09:07:57.905Z,1.40
2022-11-25T09:10:39.906Z,1.73
2022-11-25T09:13:07.903Z,1.50
2022-11-25T09:15:38.060Z,2.73
2022-11-25T09:18:16.824Z,1.60
2022-11-25T09:20:44.253Z,1.97
2022-11-25T09:23:11.744Z,1.47
2022-11-25T09:25:45.895Z,1.47
2022-11-25T09:28:13.399Z,1.53
2022-11-25T09:30:40.789Z,1.77
2022-11-25T09:33:15.862Z,1.70
2022-11-25T09:35:43.718Z,1.60
2022-11-25T09:38:11.236Z,1.67
2022-11-25T09:41:02.857Z,1.90
2022-11-25T09:44:33.898Z,1.93
2022-11-25T09:47:36.957Z,1.58
2022-11-25T09:50:46.649Z,1.60
2022-11-25T09:53:57.905Z,2.03
2022-11-25T09:56:38.198Z,1.65
2022-11-25T09:59:20.930Z,1.48
2022-11-25T10:01:58.917Z,1.40
2022-11-25T10:04:52.934Z,1.60
2022-11-25T10:07:50.039Z,2.10
2022-11-25T10:10:50.152Z,1.80
2022-11-25T10:13:46.897Z,1.25
2022-11-25T10:16:33.160Z,1.40
2022-11-25T10:19:07.175Z,1.10
2022-11-25T10:21:41.060Z,1.00
2022-11-25T10:24:15.067Z,0.98
2022-11-25T10:26:52.186Z,1.17
2022-11-25T10:29:31.012Z,1.20
2022-11-25T10:32:29.088Z,0.88
2022-11-25T10:35:02.562Z,1.00
2022-11-25T10:37:46.063Z,1.02
2022-11-25T10:40:17.983Z,0.82
2022-11-25T10:42:45.550Z,1.10
2022-11-25T10:45:20.044Z,1.02
2022-11-25T10:48:06.333Z,0.65
2022-11-25T10:50:58.066Z,0.90
2022-11-25T10:53:31.769Z,0.90
2022-11-25T10:56:10.055Z,0.90
2022-11-25T10:58:40.151Z,0.93
2022-11-25T11:01:30.128Z,0.77
2022-11-25T11:04:15.152Z,0.47
2022-11-25T11:06:54.157Z,0.60
2022-11-25T11:09:46.426Z,0.80
2022-11-25T11:12:32.059Z,0.60
2022-11-25T11:15:23.688Z,0.97
2022-11-25T11:17:58.072Z,0.93
2022-11-25T11:20:28.830Z,0.80
2022-11-25T11:23:08.818Z,1.00
2022-11-25T11:25:42.452Z,0.90
2022-11-25T11:28:41.059Z,1.20
2022-11-25T11:31:25.128Z,0.83
2022-11-25T11:34:25.080Z,1.00
2022-11-25T11:37:00.682Z,0.80
2022-11-25T11:39:53.060Z,0.70
2022-11-25T11:42:36.757Z,0.90
2022-11-25T11:45:23.139Z,1.33
2022-11-25T11:48:11.006Z,0.97
2022-11-25T11:50:55.116Z,0.70
2022-11-25T11:53:34.926Z,0.90
2022-11-25T11:59:26.099Z,0.77
2022-11-25T12:02:22.206Z,1.10
2022-11-25T12:05:10.774Z,1.17
2022-11-25T12:08:08.120Z,1.10
2022-11-25T12:10:48.234Z,1.60
2022-11-25T12:13:45.122Z,2.23
2022-11-25T12:16:56.116Z,2.13
2022-11-25T12:20:07.066Z,1.70
2022-11-25T12:22:58.172Z,1.67
2022-11-25T12:25:41.162Z,2.80
2022-11-25T12:28:29.253Z,2.40
2022-11-25T12:31:22.133Z,2.17
2022-11-25T12:34:14.067Z,2.47
2022-11-25T12:36:51.093Z,2.30
2022-11-25T12:40:01.869Z,2.33
2022-11-25T12:42:37.091Z,2.23
2022-11-25T12:45:07.777Z,2.70
2022-11-25T12:47:35.472Z,2.10
2022-11-25T12:50:10.125Z,2.80
2022-11-25T12:52:55.809Z,2.77
2022-11-25T12:55:32.143Z,3.00
2022-11-25T12:58:24.651Z,2.27
2022-11-25T13:01:27.282Z,2.33
2022-11-25T13:04:19.799Z,2.70
2022-11-25T13:07:11.104Z,3.30
2022-11-25T13:10:36.170Z,2.80
2022-11-25T13:13:37.359Z,2.00
2022-11-25T13:16:08.443Z,2.13
2022-11-25T13:18:48.100Z,2.37
2022-11-25T13:21:17.048Z,2.70
2022-11-25T13:23:55.170Z,2.30
2022-11-25T13:26:37.790Z,2.40
2022-11-25T13:29:21.141Z,2.63
2022-11-25T13:31:59.482Z,2.50
2022-11-25T13:34:37.360Z,2.83
2022-11-25T13:37:40.724Z,2.33
2022-11-25T13:40:28.104Z,2.07
2022-11-25T13:42:55.705Z,1.83
2022-11-25T13:45:27.699Z,2.67
2022-11-25T13:48:11.141Z,2.00
2022-11-25T13:51:03.557Z,2.57
2022-11-25T13:54:04.137Z,2.97
2022-11-25T13:56:35.489Z,2.90
2022-11-25T13:59:19.340Z,2.30
2022-11-25T14:01:46.871Z,2.47
2022-11-25T14:04:17.094Z,2.50
2022-11-25T14:07:04.131Z,2.43
2022-11-25T14:10:17.710Z,2.07
2022-11-25T14:13:16.218Z,2.80
2022-11-25T14:15:43.759Z,2.30
2022-11-25T14:19:03.159Z,2.90
2022-11-25T14:21:56.177Z,2.33
2022-11-25T14:24:37.118Z,2.13
2022-11-25T14:27:12.178Z,2.63
2022-11-25T14:30:06.139Z,3.03
2022-11-25T14:33:12.501Z,2.30
2022-11-25T14:35:54.172Z,1.97
2022-11-25T14:38:43.581Z,2.43
2022-11-25T14:41:43.646Z,2.50
2022-11-25T14:44:21.898Z,2.87
2022-11-25T14:47:04.089Z,2.53
2022-11-25T14:50:00.123Z,2.83
2022-11-25T14:52:44.221Z,2.40
2022-11-25T14:55:12.930Z,2.20
2022-11-25T14:57:51.211Z,3.20
2022-11-25T15:00:19.261Z,3.77
2022-11-25T15:03:13.235Z,5.10
2022-11-25T15:05:41.192Z,4.30
2022-11-25T15:08:31.150Z,6.30
2022-11-25T15:11:05.795Z,2.70
2022-11-25T15:13:57.152Z,8.80
2022-11-25T15:16:35.220Z,11.83
2022-11-25T15:19:21.138Z,2.97
2022-11-25T15:22:21.932Z,3.30
2022-11-25T15:24:55.565Z,3.10
2022-11-25T15:27:28.628Z,3.23
2022-11-25T15:30:04.102Z,3.63
2022-11-25T15:32:38.475Z,3.37
2022-11-25T15:35:15.095Z,2.90
2022-11-25T15:37:42.631Z,3.30
2022-11-25T15:40:40.132Z,2.70
2022-11-25T15:43:22.348Z,3.00
2022-11-25T15:45:59.156Z,6.10
2022-11-25T15:48:28.466Z,3.73
2022-11-25T15:51:32.136Z,3.93
2022-11-25T15:54:08.463Z,3.57
2022-11-25T15:56:47.112Z,4.97
2022-11-25T15:59:41.081Z,3.20
2022-11-25T16:02:43.219Z,4.17
2022-11-25T16:05:14.074Z,3.03
2022-11-25T16:07:57.242Z,3.23
2022-11-25T16:10:51.330Z,3.60
2022-11-25T16:13:37.259Z,3.07
2022-11-25T16:16:30.261Z,3.67
2022-11-25T16:19:24.140Z,2.90
2022-11-25T16:22:05.456Z,3.90
2022-11-25T16:25:01.832Z,3.30
2022-11-25T16:27:31.414Z,4.00
2022-11-25T16:30:23.313Z,2.97
2022-11-25T16:32:50.754Z,11.87
2022-11-25T16:35:22.254Z,4.93
2022-11-25T16:37:56.203Z,3.90
2022-11-25T16:40:24.589Z,2.67
2022-11-25T16:42:53.420Z,5.63
2022-11-25T16:45:30.190Z,4.40
2022-11-25T16:47:57.686Z,3.50
2022-11-25T16:50:25.411Z,4.03
2022-11-25T16:52:59.132Z,5.17
2022-11-25T16:55:26.700Z,4.30
2022-11-25T16:57:54.482Z,4.27
2022-11-25T17:00:28.111Z,3.37
2022-11-25T17:02:55.646Z,3.03
2022-11-25T17:05:25.706Z,4.00
2022-11-25T17:08:00.167Z,31.37
2022-11-25T17:10:34.416Z,14.23
2022-11-25T17:13:09.141Z,4.47
2022-11-25T17:15:38.241Z,6.00
2022-11-25T17:18:08.130Z,4.63
2022-11-25T17:20:42.112Z,3.00
2022-11-25T17:23:15.742Z,3.23
2022-11-25T17:25:55.118Z,3.60
2022-11-25T17:28:22.507Z,4.27
2022-11-25T17:30:50.006Z,3.20
2022-11-25T17:33:26.194Z,5.77
2022-11-25T17:35:53.628Z,4.30
2022-11-25T17:38:21.832Z,4.30
2022-11-25T17:40:57.182Z,4.43
2022-11-25T17:43:24.618Z,4.70
2022-11-25T17:45:52.114Z,4.37
2022-11-25T17:48:26.119Z,3.93
2022-11-25T17:50:53.505Z,4.47
2022-11-25T17:53:21.015Z,3.50
2022-11-25T17:55:55.167Z,3.93
2022-11-25T17:58:22.814Z,3.57
2022-11-25T18:00:50.274Z,4.20
2022-11-25T18:03:24.186Z,3.47
2022-11-25T18:05:51.670Z,3.80
2022-11-25T18:08:32.218Z,3.87
2022-11-25T18:11:07.960Z,3.77
2022-11-25T18:13:47.144Z,3.40
2022-11-25T18:16:17.324Z,4.47
2022-11-25T18:18:44.854Z,4.47
2022-11-25T18:21:20.138Z,3.90
2022-11-25T18:23:47.599Z,3.33
2022-11-25T18:26:15.059Z,3.90
2022-11-25T18:28:49.159Z,3.67
2022-11-25T18:31:16.704Z,3.90
2022-11-25T18:33:44.291Z,4.07
2022-11-25T18:36:20.135Z,3.63
2022-11-25T18:38:48.494Z,3.73
2022-11-25T18:41:28.182Z,3.40
2022-11-25T18:43:56.569Z,3.20
2022-11-25T18:46:24.045Z,3.50
2022-11-25T18:49:01.227Z,3.90
2022-11-25T18:51:28.721Z,3.00
2022-11-25T18:53:56.119Z,2.90
2022-11-25T18:56:30.238Z,3.43
2022-11-25T18:59:00.070Z,2.77
2022-11-25T19:01:28.155Z,3.20
2022-11-25T19:04:04.211Z,2.83
2022-11-25T19:06:32.494Z,3.40
2022-11-25T19:09:13.262Z,3.17
2022-11-25T19:11:45.832Z,2.93
2022-11-25T19:14:37.530Z,3.00
2022-11-25T19:17:08.770Z,2.80
2022-11-25T19:19:44.229Z,2.97
2022-11-25T19:22:15.290Z,3.03
2022-11-25T19:24:43.573Z,2.87
2022-11-25T19:27:26.180Z,3.17
2022-11-25T19:29:54.736Z,2.63
2022-11-25T19:32:35.209Z,2.70
2022-11-25T19:35:07.075Z,2.67
2022-11-25T19:37:34.562Z,2.60
2022-11-25T19:40:09.179Z,2.60
2022-11-25T19:42:37.110Z,2.67
2022-11-25T19:45:04.799Z,2.40
2022-11-25T19:47:39.190Z,2.57
2022-11-25T19:50:08.093Z,2.90
2022-11-25T19:52:38.220Z,2.93
2022-11-25T19:55:22.184Z,2.43
2022-11-25T19:57:50.477Z,2.77
2022-11-25T20:00:20.146Z,2.60
2022-11-25T20:02:57.374Z,3.43
2022-11-25T20:05:32.605Z,2.67
2022-11-25T20:08:07.225Z,3.23
2022-11-25T20:10:42.988Z,2.17
2022-11-25T20:13:18.438Z,3.60
2022-11-25T20:15:46.636Z,2.80
2022-11-25T20:18:27.195Z,3.57
2022-11-25T20:21:05.621Z,2.77
2022-11-25T20:23:52.246Z,2.73
2022-11-25T20:26:27.123Z,2.50
2022-11-25T20:29:01.272Z,2.60
2022-11-25T20:31:30.723Z,2.50
2022-11-25T20:33:58.408Z,2.60
2022-11-25T20:36:38.581Z,2.53
2022-11-25T20:39:06.024Z,2.70
2022-11-25T20:41:33.917Z,2.53
2022-11-25T20:44:08.185Z,2.83
2022-11-25T20:46:35.706Z,3.43
2022-11-25T20:49:19.382Z,4.30
2022-11-25T20:51:46.975Z,2.57
2022-11-25T20:54:14.945Z,4.17
2022-11-25T20:56:49.296Z,3.00
2022-11-25T20:59:22.582Z,5.87
2022-11-25T21:02:01.341Z,2.33
2022-11-25T21:04:28.923Z,2.53
2022-11-25T21:06:56.596Z,4.50
2022-11-25T21:09:34.179Z,2.70
2022-11-25T21:12:10.331Z,2.97
2022-11-25T21:14:46.268Z,2.90
2022-11-25T21:17:14.008Z,2.60
2022-11-25T21:19:41.377Z,3.20
2022-11-25T21:22:21.199Z,3.20
2022-11-25T21:24:49.134Z,2.70
2022-11-25T21:27:17.597Z,3.10
2022-11-25T21:29:53.245Z,3.10
2022-11-25T21:32:26.415Z,3.13
2022-11-25T21:35:02.201Z,3.27
2022-11-25T21:37:37.888Z,2.90
2022-11-25T21:40:12.218Z,3.40
2022-11-25T21:42:39.770Z,3.33
2022-11-25T21:45:10.251Z,2.97
2022-11-25T21:47:44.240Z,3.53
2022-11-25T21:50:16.238Z,4.20
2022-11-25T21:52:43.665Z,2.97
2022-11-25T21:55:20.176Z,3.27
2022-11-25T21:57:47.598Z,3.17
2022-11-25T22:00:30.228Z,2.90
2022-11-25T22:02:58.756Z,3.10
2022-11-25T22:05:26.339Z,2.90
2022-11-25T22:08:01.373Z,3.20
2022-11-25T22:10:36.516Z,2.67
2022-11-25T22:13:11.173Z,2.90
2022-11-25T22:15:38.591Z,3.20
2022-11-25T22:18:18.181Z,2.80
2022-11-25T22:20:50.628Z,3.80
2022-11-25T22:23:28.224Z,4.03
2022-11-25T22:25:56.085Z,3.87
2022-11-25T22:28:35.187Z,3.60
2022-11-25T22:31:06.554Z,4.13
2022-11-25T22:33:43.372Z,3.93
2022-11-25T22:36:26.144Z,3.57
2022-11-25T22:39:00.195Z,3.50
2022-11-25T22:41:27.733Z,4.00
2022-11-25T22:43:55.156Z,3.33
2022-11-25T22:46:29.171Z,4.20
2022-11-25T22:48:56.936Z,3.57
2022-11-25T22:51:27.837Z,3.67
2022-11-25T22:54:02.211Z,3.80
2022-11-25T22:56:30.656Z,3.90
2022-11-25T22:59:00.379Z,4.37
2022-11-25T23:01:34.287Z,4.20
2022-11-25T23:04:03.062Z,4.90
2022-11-25T23:06:33.414Z,4.93
2022-11-25T23:09:09.175Z,5.53
2022-11-25T23:11:43.256Z,5.90
2022-11-25T23:14:18.184Z,5.77
2022-11-25T23:16:45.662Z,7.03
2022-11-25T23:19:16.866Z,7.20
2022-11-25T23:21:52.237Z,6.77
2022-11-25T23:24:19.637Z,6.97
2022-11-25T23:26:47.110Z,6.30
2022-11-25T23:29:21.188Z,7.13
2022-11-25T23:31:48.793Z,6.23
2022-11-25T23:34:16.518Z,6.43
2022-11-25T23:36:54.359Z,6.37
2022-11-25T23:39:24.049Z,6.50
2022-11-25T23:41:51.923Z,6.13
2022-11-25T23:44:35.367Z,6.23
2022-11-25T23:47:06.145Z,6.00
2022-11-25T23:49:51.194Z,5.80
2022-11-25T23:52:24.636Z,5.40
2022-11-25T23:55:02.307Z,6.30
2022-11-25T23:57:34.162Z,6.03
